sensor_id;sensor_type;location;lat;lon;timestamp;P1;durP1;ratioP1;P2;durP2;ratioP2
28547;SDS011;68292;49.600;8.746;2023-05-10T00:02:43;1.80;;;1.70;;
28547;SDS011;68292;49.600;8.746;2023-05-10T00:05:31;8.32;;;2.10;;
28547;SDS011;68292;49.600;8.746;2023-05-10T00:08:18;3.15;;;1.30;;
28547;SDS011;68292;49.600;8.746;2023-05-10T00:11:05;1.48;;;1.38;;
28547;SDS011;68292;49.600;8.746;2023-05-10T00:13:52;2.88;;;1.33;;
28547;SDS011;68292;49.600;8.746;2023-05-10T00:16:39;1.30;;;1.20;;
28547;SDS011;68292;49.600;8.746;2023-05-10T00:19:25;3.08;;;1.13;;
28547;SDS011;68292;49.600;8.746;2023-05-10T00:22:12;1.92;;;1.17;;
28547;SDS011;68292;49.600;8.746;2023-05-10T00:25:00;3.75;;;1.48;;
28547;SDS011;68292;49.600;8.746;2023-05-10T00:27:47;1.13;;;1.02;;
28547;SDS011;68292;49.600;8.746;2023-05-10T00:30:34;3.63;;;1.50;;
28547;SDS011;68292;49.600;8.746;2023-05-10T00:33:21;2.67;;;1.23;;
28547;SDS011;68292;49.600;8.746;2023-05-10T00:36:07;3.33;;;1.20;;
28547;SDS011;68292;49.600;8.746;2023-05-10T00:38:54;2.53;;;1.52;;
28547;SDS011;68292;49.600;8.746;2023-05-10T00:41:42;1.58;;;1.48;;
28547;SDS011;68292;49.600;8.746;2023-05-10T00:44:29;4.82;;;1.60;;
28547;SDS011;68292;49.600;8.746;2023-05-10T00:47:16;1.88;;;1.45;;
28547;SDS011;68292;49.600;8.746;2023-05-10T00:50:04;2.45;;;1.20;;
28547;SDS011;68292;49.600;8.746;2023-05-10T00:52:52;1.80;;;1.50;;
28547;SDS011;68292;49.600;8.746;2023-05-10T00:55:39;6.22;;;1.60;;
28547;SDS011;68292;49.600;8.746;2023-05-10T00:58:28;2.15;;;1.10;;
28547;SDS011;68292;49.600;8.746;2023-05-10T01:01:15;1.80;;;1.40;;
28547;SDS011;68292;49.600;8.746;2023-05-10T01:04:02;2.08;;;1.45;;
28547;SDS011;68292;49.600;8.746;2023-05-10T01:06:50;2.28;;;1.45;;
28547;SDS011;68292;49.600;8.746;2023-05-10T01:09:37;3.50;;;1.55;;
28547;SDS011;68292;49.600;8.746;2023-05-10T01:12:24;1.67;;;1.55;;
28547;SDS011;68292;49.600;8.746;2023-05-10T01:15:13;3.42;;;1.58;;
28547;SDS011;68292;49.600;8.746;2023-05-10T01:18:02;1.67;;;1.58;;
28547;SDS011;68292;49.600;8.746;2023-05-10T01:20:52;5.13;;;1.80;;
28547;SDS011;68292;49.600;8.746;2023-05-10T01:24:06;2.70;;;1.65;;
28547;SDS011;68292;49.600;8.746;2023-05-10T01:27:20;2.00;;;1.90;;
28547;SDS011;68292;49.600;8.746;2023-05-10T01:30:28;3.05;;;1.80;;
28547;SDS011;68292;49.600;8.746;2023-05-10T01:33:56;2.30;;;2.10;;
28547;SDS011;68292;49.600;8.746;2023-05-10T01:36:50;2.80;;;2.35;;
28547;SDS011;68292;49.600;8.746;2023-05-10T01:39:44;2.30;;;2.10;;
28547;SDS011;68292;49.600;8.746;2023-05-10T01:42:36;3.80;;;2.40;;
28547;SDS011;68292;49.600;8.746;2023-05-10T01:45:36;2.28;;;2.17;;
28547;SDS011;68292;49.600;8.746;2023-05-10T01:48:28;2.22;;;2.03;;
28547;SDS011;68292;49.600;8.746;2023-05-10T01:51:21;3.95;;;2.35;;
28547;SDS011;68292;49.600;8.746;2023-05-10T01:54:11;3.88;;;1.92;;
28547;SDS011;68292;49.600;8.746;2023-05-10T01:57:01;2.13;;;2.03;;
28547;SDS011;68292;49.600;8.746;2023-05-10T01:59:52;2.65;;;1.73;;
28547;SDS011;68292;49.600;8.746;2023-05-10T02:02:40;3.28;;;1.85;;
28547;SDS011;68292;49.600;8.746;2023-05-10T02:05:31;6.32;;;1.92;;
28547;SDS011;68292;49.600;8.746;2023-05-10T02:08:21;2.53;;;1.98;;
28547;SDS011;68292;49.600;8.746;2023-05-10T02:11:08;2.05;;;1.95;;
28547;SDS011;68292;49.600;8.746;2023-05-10T02:13:59;2.47;;;2.05;;
28547;SDS011;68292;49.600;8.746;2023-05-10T02:16:47;2.72;;;2.10;;
28547;SDS011;68292;49.600;8.746;2023-05-10T02:19:35;2.00;;;1.90;;
28547;SDS011;68292;49.600;8.746;2023-05-10T02:22:25;1.80;;;1.70;;
28547;SDS011;68292;49.600;8.746;2023-05-10T02:25:14;3.00;;;1.80;;
28547;SDS011;68292;49.600;8.746;2023-05-10T02:28:05;3.08;;;2.22;;
28547;SDS011;68292;49.600;8.746;2023-05-10T02:30:53;3.47;;;1.90;;
28547;SDS011;68292;49.600;8.746;2023-05-10T02:33:40;2.45;;;1.90;;
28547;SDS011;68292;49.600;8.746;2023-05-10T02:36:29;3.33;;;2.58;;
28547;SDS011;68292;49.600;8.746;2023-05-10T02:39:16;1.70;;;1.60;;
28547;SDS011;68292;49.600;8.746;2023-05-10T02:42:07;2.15;;;1.67;;
28547;SDS011;68292;49.600;8.746;2023-05-10T02:44:56;2.38;;;1.80;;
28547;SDS011;68292;49.600;8.746;2023-05-10T02:47:46;2.97;;;1.63;;
28547;SDS011;68292;49.600;8.746;2023-05-10T02:50:33;2.10;;;1.98;;
28547;SDS011;68292;49.600;8.746;2023-05-10T02:53:22;1.95;;;1.73;;
28547;SDS011;68292;49.600;8.746;2023-05-10T02:56:19;2.05;;;1.85;;
28547;SDS011;68292;49.600;8.746;2023-05-10T02:59:12;3.60;;;1.52;;
28547;SDS011;68292;49.600;8.746;2023-05-10T03:01:59;3.30;;;1.40;;
28547;SDS011;68292;49.600;8.746;2023-05-10T03:04:47;2.30;;;1.80;;
28547;SDS011;68292;49.600;8.746;2023-05-10T03:07:34;1.50;;;1.40;;
28547;SDS011;68292;49.600;8.746;2023-05-10T03:10:21;2.05;;;1.60;;
28547;SDS011;68292;49.600;8.746;2023-05-10T03:13:16;1.67;;;1.55;;
28547;SDS011;68292;49.600;8.746;2023-05-10T03:16:19;1.85;;;1.50;;
28547;SDS011;68292;49.600;8.746;2023-05-10T03:19:15;1.52;;;1.42;;
28547;SDS011;68292;49.600;8.746;2023-05-10T03:22:10;2.55;;;1.70;;
28547;SDS011;68292;49.600;8.746;2023-05-10T03:24:58;1.95;;;1.55;;
28547;SDS011;68292;49.600;8.746;2023-05-10T03:27:51;2.63;;;1.60;;
28547;SDS011;68292;49.600;8.746;2023-05-10T03:30:38;1.50;;;1.40;;
28547;SDS011;68292;49.600;8.746;2023-05-10T03:33:29;2.22;;;2.03;;
28547;SDS011;68292;49.600;8.746;2023-05-10T03:36:17;2.00;;;1.90;;
28547;SDS011;68292;49.600;8.746;2023-05-10T03:39:04;2.75;;;1.75;;
28547;SDS011;68292;49.600;8.746;2023-05-10T03:41:51;2.78;;;2.00;;
28547;SDS011;68292;49.600;8.746;2023-05-10T03:44:38;2.13;;;1.83;;
28547;SDS011;68292;49.600;8.746;2023-05-10T03:47:26;1.50;;;1.40;;
28547;SDS011;68292;49.600;8.746;2023-05-10T03:50:17;2.75;;;1.88;;
28547;SDS011;68292;49.600;8.746;2023-05-10T03:53:05;2.05;;;1.67;;
28547;SDS011;68292;49.600;8.746;2023-05-10T03:55:52;2.42;;;1.65;;
28547;SDS011;68292;49.600;8.746;2023-05-10T03:58:38;3.22;;;1.80;;
28547;SDS011;68292;49.600;8.746;2023-05-10T04:01:25;2.45;;;2.00;;
28547;SDS011;68292;49.600;8.746;2023-05-10T04:04:11;2.22;;;2.10;;
28547;SDS011;68292;49.600;8.746;2023-05-10T04:06:59;3.45;;;2.10;;
28547;SDS011;68292;49.600;8.746;2023-05-10T04:09:46;3.03;;;2.42;;
28547;SDS011;68292;49.600;8.746;2023-05-10T04:12:33;4.18;;;2.00;;
28547;SDS011;68292;49.600;8.746;2023-05-10T04:15:20;2.13;;;2.03;;
28547;SDS011;68292;49.600;8.746;2023-05-10T04:18:07;2.22;;;2.10;;
28547;SDS011;68292;49.600;8.746;2023-05-10T04:20:53;5.57;;;2.03;;
28547;SDS011;68292;49.600;8.746;2023-05-10T04:23:42;2.38;;;2.25;;
28547;SDS011;68292;49.600;8.746;2023-05-10T04:26:28;2.90;;;2.05;;
28547;SDS011;68292;49.600;8.746;2023-05-10T04:29:14;2.47;;;2.28;;
28547;SDS011;68292;49.600;8.746;2023-05-10T04:32:01;1.98;;;1.88;;
28547;SDS011;68292;49.600;8.746;2023-05-10T04:34:48;6.03;;;2.38;;
28547;SDS011;68292;49.600;8.746;2023-05-10T04:37:35;2.25;;;2.10;;
28547;SDS011;68292;49.600;8.746;2023-05-10T04:40:23;3.72;;;2.10;;
28547;SDS011;68292;49.600;8.746;2023-05-10T04:43:10;3.92;;;2.15;;
28547;SDS011;68292;49.600;8.746;2023-05-10T04:45:57;2.53;;;2.33;;
28547;SDS011;68292;49.600;8.746;2023-05-10T04:48:43;2.75;;;2.20;;
28547;SDS011;68292;49.600;8.746;2023-05-10T04:51:30;2.30;;;2.10;;
28547;SDS011;68292;49.600;8.746;2023-05-10T04:54:17;2.05;;;1.88;;
28547;SDS011;68292;49.600;8.746;2023-05-10T04:57:05;2.35;;;2.15;;
28547;SDS011;68292;49.600;8.746;2023-05-10T04:59:52;2.28;;;2.08;;
28547;SDS011;68292;49.600;8.746;2023-05-10T05:02:38;2.25;;;2.10;;
28547;SDS011;68292;49.600;8.746;2023-05-10T05:05:29;2.83;;;2.17;;
28547;SDS011;68292;49.600;8.746;2023-05-10T05:08:15;2.33;;;2.03;;
28547;SDS011;68292;49.600;8.746;2023-05-10T05:11:02;3.53;;;2.10;;
28547;SDS011;68292;49.600;8.746;2023-05-10T05:13:50;1.70;;;1.60;;
28547;SDS011;68292;49.600;8.746;2023-05-10T05:16:37;2.28;;;2.08;;
28547;SDS011;68292;49.600;8.746;2023-05-10T05:19:24;1.90;;;1.80;;
28547;SDS011;68292;49.600;8.746;2023-05-10T05:22:11;3.35;;;2.53;;
28547;SDS011;68292;49.600;8.746;2023-05-10T05:24:57;2.50;;;2.30;;
28547;SDS011;68292;49.600;8.746;2023-05-10T05:27:44;2.72;;;1.95;;
28547;SDS011;68292;49.600;8.746;2023-05-10T05:30:32;2.20;;;2.00;;
28547;SDS011;68292;49.600;8.746;2023-05-10T05:33:18;2.75;;;2.05;;
28547;SDS011;68292;49.600;8.746;2023-05-10T05:36:05;2.10;;;2.00;;
28547;SDS011;68292;49.600;8.746;2023-05-10T05:38:52;2.70;;;1.95;;
28547;SDS011;68292;49.600;8.746;2023-05-10T05:41:39;2.20;;;2.00;;
28547;SDS011;68292;49.600;8.746;2023-05-10T05:44:26;1.80;;;1.70;;
28547;SDS011;68292;49.600;8.746;2023-05-10T05:47:14;3.17;;;2.00;;
28547;SDS011;68292;49.600;8.746;2023-05-10T05:50:01;2.50;;;2.17;;
28547;SDS011;68292;49.600;8.746;2023-05-10T05:52:48;2.00;;;1.80;;
28547;SDS011;68292;49.600;8.746;2023-05-10T05:55:34;2.08;;;1.90;;
28547;SDS011;68292;49.600;8.746;2023-05-10T05:58:21;2.92;;;1.73;;
28547;SDS011;68292;49.600;8.746;2023-05-10T06:01:08;2.30;;;2.10;;
28547;SDS011;68292;49.600;8.746;2023-05-10T06:03:56;3.55;;;2.03;;
28547;SDS011;68292;49.600;8.746;2023-05-10T06:06:43;3.50;;;1.95;;
28547;SDS011;68292;49.600;8.746;2023-05-10T06:09:29;2.20;;;2.00;;
28547;SDS011;68292;49.600;8.746;2023-05-10T06:12:16;2.00;;;1.90;;
28547;SDS011;68292;49.600;8.746;2023-05-10T06:15:06;2.75;;;1.80;;
28547;SDS011;68292;49.600;8.746;2023-05-10T06:17:54;1.95;;;1.85;;
28547;SDS011;68292;49.600;8.746;2023-05-10T06:20:43;3.63;;;2.15;;
28547;SDS011;68292;49.600;8.746;2023-05-10T06:23:29;2.22;;;2.08;;
28547;SDS011;68292;49.600;8.746;2023-05-10T06:26:16;3.58;;;2.33;;
28547;SDS011;68292;49.600;8.746;2023-05-10T06:29:03;4.90;;;2.47;;
28547;SDS011;68292;49.600;8.746;2023-05-10T06:31:49;2.40;;;2.30;;
28547;SDS011;68292;49.600;8.746;2023-05-10T06:34:36;2.55;;;2.35;;
28547;SDS011;68292;49.600;8.746;2023-05-10T06:37:24;2.40;;;2.20;;
28547;SDS011;68292;49.600;8.746;2023-05-10T06:40:11;2.40;;;2.20;;
28547;SDS011;68292;49.600;8.746;2023-05-10T06:42:57;2.50;;;2.25;;
28547;SDS011;68292;49.600;8.746;2023-05-10T06:45:44;2.38;;;2.17;;
28547;SDS011;68292;49.600;8.746;2023-05-10T06:48:30;2.65;;;2.20;;
28547;SDS011;68292;49.600;8.746;2023-05-10T06:51:17;2.08;;;1.98;;
28547;SDS011;68292;49.600;8.746;2023-05-10T06:54:07;2.83;;;2.63;;
28547;SDS011;68292;49.600;8.746;2023-05-10T06:56:53;2.75;;;2.13;;
28547;SDS011;68292;49.600;8.746;2023-05-10T06:59:40;2.22;;;2.03;;
28547;SDS011;68292;49.600;8.746;2023-05-10T07:02:27;2.55;;;2.17;;
28547;SDS011;68292;49.600;8.746;2023-05-10T07:05:13;2.25;;;2.05;;
28547;SDS011;68292;49.600;8.746;2023-05-10T07:08:01;2.30;;;2.10;;
28547;SDS011;68292;49.600;8.746;2023-05-10T07:10:49;2.45;;;1.85;;
28547;SDS011;68292;49.600;8.746;2023-05-10T07:13:35;2.92;;;2.13;;
28547;SDS011;68292;49.600;8.746;2023-05-10T07:16:23;2.22;;;1.92;;
28547;SDS011;68292;49.600;8.746;2023-05-10T07:19:10;3.83;;;2.10;;
28547;SDS011;68292;49.600;8.746;2023-05-10T07:21:57;2.80;;;1.88;;
28547;SDS011;68292;49.600;8.746;2023-05-10T07:24:44;2.38;;;2.17;;
28547;SDS011;68292;49.600;8.746;2023-05-10T07:27:32;2.22;;;2.03;;
28547;SDS011;68292;49.600;8.746;2023-05-10T07:30:19;2.00;;;1.90;;
28547;SDS011;68292;49.600;8.746;2023-05-10T07:33:06;2.50;;;2.05;;
28547;SDS011;68292;49.600;8.746;2023-05-10T07:35:53;2.60;;;2.40;;
28547;SDS011;68292;49.600;8.746;2023-05-10T07:38:40;2.45;;;2.25;;
28547;SDS011;68292;49.600;8.746;2023-05-10T07:41:27;2.53;;;2.33;;
28547;SDS011;68292;49.600;8.746;2023-05-10T07:44:15;2.28;;;2.08;;
28547;SDS011;68292;49.600;8.746;2023-05-10T07:47:03;2.08;;;1.95;;
28547;SDS011;68292;49.600;8.746;2023-05-10T07:49:50;7.78;;;2.28;;
28547;SDS011;68292;49.600;8.746;2023-05-10T07:52:36;2.00;;;1.90;;
28547;SDS011;68292;49.600;8.746;2023-05-10T07:55:23;3.75;;;2.20;;
28547;SDS011;68292;49.600;8.746;2023-05-10T07:58:10;2.75;;;1.90;;
28547;SDS011;68292;49.600;8.746;2023-05-10T08:00:58;1.80;;;1.70;;
28547;SDS011;68292;49.600;8.746;2023-05-10T08:03:44;2.00;;;1.90;;
28547;SDS011;68292;49.600;8.746;2023-05-10T08:06:31;2.20;;;2.10;;
28547;SDS011;68292;49.600;8.746;2023-05-10T08:09:18;6.28;;;1.98;;
28547;SDS011;68292;49.600;8.746;2023-05-10T08:12:08;2.15;;;2.05;;
28547;SDS011;68292;49.600;8.746;2023-05-10T08:14:54;2.40;;;1.90;;
28547;SDS011;68292;49.600;8.746;2023-05-10T08:17:42;3.35;;;1.90;;
28547;SDS011;68292;49.600;8.746;2023-05-10T08:20:29;2.00;;;1.90;;
28547;SDS011;68292;49.600;8.746;2023-05-10T08:23:16;2.40;;;2.20;;
28547;SDS011;68292;49.600;8.746;2023-05-10T08:26:03;2.28;;;2.08;;
28547;SDS011;68292;49.600;8.746;2023-05-10T08:28:49;2.50;;;2.30;;
28547;SDS011;68292;49.600;8.746;2023-05-10T08:31:36;2.67;;;2.50;;
28547;SDS011;68292;49.600;8.746;2023-05-10T08:34:24;2.45;;;2.25;;
28547;SDS011;68292;49.600;8.746;2023-05-10T08:37:11;3.42;;;2.50;;
28547;SDS011;68292;49.600;8.746;2023-05-10T08:39:58;2.35;;;2.05;;
28547;SDS011;68292;49.600;8.746;2023-05-10T08:42:46;3.65;;;2.17;;
28547;SDS011;68292;49.600;8.746;2023-05-10T08:45:51;2.50;;;2.30;;
28547;SDS011;68292;49.600;8.746;2023-05-10T08:48:40;2.35;;;2.25;;
28547;SDS011;68292;49.600;8.746;2023-05-10T08:51:31;2.85;;;2.55;;
28547;SDS011;68292;49.600;8.746;2023-05-10T08:54:25;2.80;;;2.60;;
28547;SDS011;68292;49.600;8.746;2023-05-10T08:57:11;2.70;;;2.50;;
28547;SDS011;68292;49.600;8.746;2023-05-10T08:59:59;3.22;;;2.38;;
28547;SDS011;68292;49.600;8.746;2023-05-10T09:02:51;4.13;;;2.65;;
28547;SDS011;68292;49.600;8.746;2023-05-10T09:05:41;2.97;;;2.30;;
28547;SDS011;68292;49.600;8.746;2023-05-10T09:08:30;2.30;;;2.10;;
28547;SDS011;68292;49.600;8.746;2023-05-10T09:11:17;2.88;;;2.03;;
28547;SDS011;68292;49.600;8.746;2023-05-10T09:14:05;2.35;;;2.15;;
28547;SDS011;68292;49.600;8.746;2023-05-10T09:16:54;2.20;;;2.10;;
28547;SDS011;68292;49.600;8.746;2023-05-10T09:19:42;2.42;;;2.17;;
28547;SDS011;68292;49.600;8.746;2023-05-10T09:22:30;2.10;;;2.00;;
28547;SDS011;68292;49.600;8.746;2023-05-10T09:25:19;2.13;;;1.90;;
28547;SDS011;68292;49.600;8.746;2023-05-10T09:28:06;3.00;;;2.33;;
28547;SDS011;68292;49.600;8.746;2023-05-10T09:30:54;3.25;;;2.13;;
28547;SDS011;68292;49.600;8.746;2023-05-10T09:33:43;2.75;;;2.50;;
28547;SDS011;68292;49.600;8.746;2023-05-10T09:36:30;5.00;;;2.55;;
28547;SDS011;68292;49.600;8.746;2023-05-10T09:39:17;2.95;;;2.30;;
28547;SDS011;68292;49.600;8.746;2023-05-10T09:42:05;2.42;;;2.22;;
28547;SDS011;68292;49.600;8.746;2023-05-10T09:44:54;5.88;;;2.42;;
28547;SDS011;68292;49.600;8.746;2023-05-10T09:47:46;5.55;;;2.40;;
28547;SDS011;68292;49.600;8.746;2023-05-10T09:50:33;2.15;;;1.95;;
28547;SDS011;68292;49.600;8.746;2023-05-10T09:53:19;4.03;;;2.13;;
28547;SDS011;68292;49.600;8.746;2023-05-10T09:56:06;4.00;;;2.03;;
28547;SDS011;68292;49.600;8.746;2023-05-10T09:59:02;2.50;;;2.30;;
28547;SDS011;68292;49.600;8.746;2023-05-10T10:01:50;2.58;;;2.38;;
28547;SDS011;68292;49.600;8.746;2023-05-10T10:04:38;3.58;;;2.40;;
28547;SDS011;68292;49.600;8.746;2023-05-10T10:07:26;2.33;;;2.22;;
28547;SDS011;68292;49.600;8.746;2023-05-10T10:10:14;3.33;;;2.30;;
28547;SDS011;68292;49.600;8.746;2023-05-10T10:13:01;2.58;;;2.38;;
28547;SDS011;68292;49.600;8.746;2023-05-10T10:15:50;2.90;;;2.58;;
28547;SDS011;68292;49.600;8.746;2023-05-10T10:18:39;3.40;;;2.50;;
28547;SDS011;68292;49.600;8.746;2023-05-10T10:21:27;4.22;;;2.47;;
28547;SDS011;68292;49.600;8.746;2023-05-10T10:24:15;2.50;;;2.28;;
28547;SDS011;68292;49.600;8.746;2023-05-10T10:27:04;2.83;;;2.63;;
28547;SDS011;68292;49.600;8.746;2023-05-10T10:30:03;2.40;;;2.20;;
28547;SDS011;68292;49.600;8.746;2023-05-10T10:33:10;3.92;;;2.33;;
28547;SDS011;68292;49.600;8.746;2023-05-10T10:36:39;3.28;;;2.28;;
28547;SDS011;68292;49.600;8.746;2023-05-10T10:39:28;2.38;;;2.17;;
28547;SDS011;68292;49.600;8.746;2023-05-10T10:42:15;2.10;;;1.90;;
28547;SDS011;68292;49.600;8.746;2023-05-10T10:45:31;2.05;;;1.88;;
28547;SDS011;68292;49.600;8.746;2023-05-10T10:48:22;4.40;;;1.95;;
28547;SDS011;68292;49.600;8.746;2023-05-10T10:51:09;3.78;;;2.00;;
28547;SDS011;68292;49.600;8.746;2023-05-10T10:53:58;2.40;;;2.00;;
28547;SDS011;68292;49.600;8.746;2023-05-10T10:57:11;2.15;;;2.05;;
28547;SDS011;68292;49.600;8.746;2023-05-10T11:03:12;2.08;;;1.88;;
28547;SDS011;68292;49.600;8.746;2023-05-10T11:06:03;3.30;;;2.28;;
28547;SDS011;68292;49.600;8.746;2023-05-10T11:08:50;3.38;;;2.60;;
28547;SDS011;68292;49.600;8.746;2023-05-10T11:11:48;2.30;;;2.20;;
28547;SDS011;68292;49.600;8.746;2023-05-10T11:14:39;2.70;;;2.50;;
28547;SDS011;68292;49.600;8.746;2023-05-10T11:17:26;2.30;;;2.20;;
28547;SDS011;68292;49.600;8.746;2023-05-10T11:20:14;2.85;;;2.60;;
28547;SDS011;68292;49.600;8.746;2023-05-10T11:23:14;2.63;;;2.42;;
28547;SDS011;68292;49.600;8.746;2023-05-10T11:26:02;2.63;;;2.42;;
28547;SDS011;68292;49.600;8.746;2023-05-10T11:28:51;2.38;;;2.20;;
28547;SDS011;68292;49.600;8.746;2023-05-10T11:31:44;2.97;;;2.28;;
28547;SDS011;68292;49.600;8.746;2023-05-10T11:34:31;3.58;;;2.50;;
28547;SDS011;68292;49.600;8.746;2023-05-10T11:37:19;2.08;;;1.98;;
28547;SDS011;68292;49.600;8.746;2023-05-10T11:40:07;2.40;;;2.13;;
28547;SDS011;68292;49.600;8.746;2023-05-10T11:42:55;2.45;;;2.17;;
28547;SDS011;68292;49.600;8.746;2023-05-10T11:45:42;4.40;;;2.13;;
28547;SDS011;68292;49.600;8.746;2023-05-10T11:48:29;2.17;;;2.03;;
28547;SDS011;68292;49.600;8.746;2023-05-10T11:51:19;2.45;;;1.92;;
28547;SDS011;68292;49.600;8.746;2023-05-10T11:54:07;3.97;;;2.08;;
28547;SDS011;68292;49.600;8.746;2023-05-10T11:56:56;2.58;;;2.20;;
28547;SDS011;68292;49.600;8.746;2023-05-10T11:59:43;3.05;;;2.10;;
28547;SDS011;68292;49.600;8.746;2023-05-10T12:02:30;2.55;;;2.35;;
28547;SDS011;68292;49.600;8.746;2023-05-10T12:05:17;2.72;;;2.10;;
28547;SDS011;68292;49.600;8.746;2023-05-10T12:08:10;2.40;;;2.28;;
28547;SDS011;68292;49.600;8.746;2023-05-10T12:11:04;4.13;;;2.20;;
28547;SDS011;68292;49.600;8.746;2023-05-10T12:13:57;3.67;;;2.22;;
28547;SDS011;68292;49.600;8.746;2023-05-10T12:16:44;2.58;;;2.35;;
28547;SDS011;68292;49.600;8.746;2023-05-10T12:19:36;3.05;;;2.38;;
28547;SDS011;68292;49.600;8.746;2023-05-10T12:22:23;2.20;;;2.10;;
28547;SDS011;68292;49.600;8.746;2023-05-10T12:25:09;2.25;;;2.15;;
28547;SDS011;68292;49.600;8.746;2023-05-10T12:27:57;2.85;;;2.38;;
28547;SDS011;68292;49.600;8.746;2023-05-10T12:30:46;2.83;;;2.63;;
28547;SDS011;68292;49.600;8.746;2023-05-10T12:33:36;2.63;;;2.42;;
28547;SDS011;68292;49.600;8.746;2023-05-10T12:36:26;2.78;;;2.58;;
28547;SDS011;68292;49.600;8.746;2023-05-10T12:39:13;2.90;;;2.70;;
28547;SDS011;68292;49.600;8.746;2023-05-10T12:41:59;2.58;;;2.30;;
28547;SDS011;68292;49.600;8.746;2023-05-10T12:44:46;4.80;;;2.78;;
28547;SDS011;68292;49.600;8.746;2023-05-10T12:47:34;2.50;;;2.17;;
28547;SDS011;68292;49.600;8.746;2023-05-10T12:50:21;3.97;;;1.65;;
28547;SDS011;68292;49.600;8.746;2023-05-10T12:53:09;2.15;;;1.70;;
28547;SDS011;68292;49.600;8.746;2023-05-10T12:55:55;1.80;;;1.67;;
28547;SDS011;68292;49.600;8.746;2023-05-10T12:58:42;1.52;;;1.42;;
28547;SDS011;68292;49.600;8.746;2023-05-10T13:01:32;2.08;;;1.52;;
28547;SDS011;68292;49.600;8.746;2023-05-10T13:04:20;3.97;;;1.75;;
28547;SDS011;68292;49.600;8.746;2023-05-10T13:07:07;3.95;;;1.40;;
28547;SDS011;68292;49.600;8.746;2023-05-10T13:09:55;4.40;;;1.90;;
28547;SDS011;68292;49.600;8.746;2023-05-10T13:12:42;3.50;;;1.55;;
28547;SDS011;68292;49.600;8.746;2023-05-10T13:15:28;1.40;;;1.30;;
28547;SDS011;68292;49.600;8.746;2023-05-10T13:18:15;2.13;;;1.55;;
28547;SDS011;68292;49.600;8.746;2023-05-10T13:21:03;1.75;;;1.65;;
28547;SDS011;68292;49.600;8.746;2023-05-10T13:23:50;2.80;;;1.50;;
28547;SDS011;68292;49.600;8.746;2023-05-10T13:26:37;1.98;;;1.80;;
28547;SDS011;68292;49.600;8.746;2023-05-10T13:29:23;1.73;;;1.63;;
28547;SDS011;68292;49.600;8.746;2023-05-10T13:32:10;2.60;;;2.05;;
28547;SDS011;68292;49.600;8.746;2023-05-10T13:34:56;1.65;;;1.55;;
28547;SDS011;68292;49.600;8.746;2023-05-10T13:37:44;2.10;;;1.65;;
28547;SDS011;68292;49.600;8.746;2023-05-10T13:40:31;5.78;;;1.80;;
28547;SDS011;68292;49.600;8.746;2023-05-10T13:43:18;1.83;;;1.65;;
28547;SDS011;68292;49.600;8.746;2023-05-10T13:46:04;3.33;;;1.77;;
28547;SDS011;68292;49.600;8.746;2023-05-10T13:48:51;2.78;;;2.05;;
28547;SDS011;68292;49.600;8.746;2023-05-10T13:51:37;2.95;;;2.20;;
28547;SDS011;68292;49.600;8.746;2023-05-10T13:54:26;3.58;;;2.55;;
28547;SDS011;68292;49.600;8.746;2023-05-10T13:57:13;3.25;;;2.63;;
28547;SDS011;68292;49.600;8.746;2023-05-10T14:00:01;3.05;;;2.25;;
28547;SDS011;68292;49.600;8.746;2023-05-10T14:02:52;4.95;;;4.10;;
28547;SDS011;68292;49.600;8.746;2023-05-10T14:05:39;3.03;;;2.83;;
28547;SDS011;68292;49.600;8.746;2023-05-10T14:08:25;5.30;;;2.17;;
28547;SDS011;68292;49.600;8.746;2023-05-10T14:11:15;4.93;;;3.50;;
28547;SDS011;68292;49.600;8.746;2023-05-10T14:14:02;4.97;;;2.72;;
28547;SDS011;68292;49.600;8.746;2023-05-10T14:16:49;4.53;;;3.00;;
28547;SDS011;68292;49.600;8.746;2023-05-10T14:19:35;5.43;;;3.38;;
28547;SDS011;68292;49.600;8.746;2023-05-10T14:22:22;3.40;;;3.10;;
28547;SDS011;68292;49.600;8.746;2023-05-10T14:25:09;5.80;;;3.83;;
28547;SDS011;68292;49.600;8.746;2023-05-10T14:27:57;6.68;;;3.53;;
28547;SDS011;68292;49.600;8.746;2023-05-10T14:30:44;2.97;;;2.67;;
28547;SDS011;68292;49.600;8.746;2023-05-10T14:33:30;3.08;;;2.28;;
28547;SDS011;68292;49.600;8.746;2023-05-10T14:36:17;2.25;;;2.05;;
28547;SDS011;68292;49.600;8.746;2023-05-10T14:39:04;2.38;;;1.80;;
28547;SDS011;68292;49.600;8.746;2023-05-10T14:41:51;1.80;;;1.70;;
28547;SDS011;68292;49.600;8.746;2023-05-10T14:44:39;2.83;;;1.60;;
28547;SDS011;68292;49.600;8.746;2023-05-10T14:47:25;2.95;;;1.65;;
28547;SDS011;68292;49.600;8.746;2023-05-10T14:50:12;1.58;;;1.40;;
28547;SDS011;68292;49.600;8.746;2023-05-10T14:53:19;1.92;;;1.40;;
28547;SDS011;68292;49.600;8.746;2023-05-10T14:56:06;2.30;;;1.98;;
28547;SDS011;68292;49.600;8.746;2023-05-10T14:58:52;13.18;;;9.73;;
28547;SDS011;68292;49.600;8.746;2023-05-10T15:01:41;13.93;;;12.57;;
28547;SDS011;68292;49.600;8.746;2023-05-10T15:04:28;19.45;;;17.63;;
28547;SDS011;68292;49.600;8.746;2023-05-10T15:07:15;13.75;;;12.45;;
28547;SDS011;68292;49.600;8.746;2023-05-10T15:10:03;15.65;;;14.20;;
28547;SDS011;68292;49.600;8.746;2023-05-10T15:12:51;6.63;;;6.03;;
28547;SDS011;68292;49.600;8.746;2023-05-10T15:15:37;5.10;;;4.55;;
28547;SDS011;68292;49.600;8.746;2023-05-10T15:18:25;3.60;;;3.30;;
28547;SDS011;68292;49.600;8.746;2023-05-10T15:21:12;3.05;;;2.70;;
28547;SDS011;68292;49.600;8.746;2023-05-10T15:23:59;3.70;;;3.30;;
28547;SDS011;68292;49.600;8.746;2023-05-10T15:26:45;5.82;;;5.07;;
28547;SDS011;68292;49.600;8.746;2023-05-10T15:29:32;5.15;;;4.65;;
28547;SDS011;68292;49.600;8.746;2023-05-10T15:32:19;4.95;;;4.55;;
28547;SDS011;68292;49.600;8.746;2023-05-10T15:35:07;3.45;;;3.13;;
28547;SDS011;68292;49.600;8.746;2023-05-10T15:37:55;2.50;;;2.30;;
28547;SDS011;68292;49.600;8.746;2023-05-10T15:40:41;2.38;;;2.03;;
28547;SDS011;68292;49.600;8.746;2023-05-10T15:43:28;1.58;;;1.48;;
28547;SDS011;68292;49.600;8.746;2023-05-10T15:46:15;1.40;;;1.30;;
28547;SDS011;68292;49.600;8.746;2023-05-10T15:49:02;4.15;;;1.50;;
28547;SDS011;68292;49.600;8.746;2023-05-10T15:51:50;1.40;;;1.30;;
28547;SDS011;68292;49.600;8.746;2023-05-10T15:54:36;1.40;;;1.30;;
28547;SDS011;68292;49.600;8.746;2023-05-10T15:57:23;2.58;;;1.60;;
28547;SDS011;68292;49.600;8.746;2023-05-10T16:00:10;1.25;;;1.15;;
28547;SDS011;68292;49.600;8.746;2023-05-10T16:02:58;1.52;;;1.30;;
28547;SDS011;68292;49.600;8.746;2023-05-10T16:05:44;1.05;;;1.05;;
28547;SDS011;68292;49.600;8.746;2023-05-10T16:08:32;1.40;;;1.10;;
28547;SDS011;68292;49.600;8.746;2023-05-10T16:11:19;1.30;;;1.15;;
28547;SDS011;68292;49.600;8.746;2023-05-10T16:14:06;1.27;;;1.10;;
28547;SDS011;68292;49.600;8.746;2023-05-10T16:16:54;1.30;;;1.20;;
28547;SDS011;68292;49.600;8.746;2023-05-10T16:19:41;1.40;;;1.13;;
28547;SDS011;68292;49.600;8.746;2023-05-10T16:22:28;4.35;;;1.20;;
28547;SDS011;68292;49.600;8.746;2023-05-10T16:25:16;3.50;;;1.15;;
28547;SDS011;68292;49.600;8.746;2023-05-10T16:28:03;1.52;;;1.20;;
28547;SDS011;68292;49.600;8.746;2023-05-10T16:30:50;1.35;;;1.25;;
28547;SDS011;68292;49.600;8.746;2023-05-10T16:33:36;1.17;;;1.08;;
28547;SDS011;68292;49.600;8.746;2023-05-10T16:36:23;5.68;;;1.20;;
28547;SDS011;68292;49.600;8.746;2023-05-10T16:39:09;1.17;;;1.15;;
28547;SDS011;68292;49.600;8.746;2023-05-10T16:41:57;0.90;;;0.90;;
28547;SDS011;68292;49.600;8.746;2023-05-10T16:44:45;4.20;;;1.30;;
28547;SDS011;68292;49.600;8.746;2023-05-10T16:47:31;1.83;;;1.20;;
28547;SDS011;68292;49.600;8.746;2023-05-10T16:50:18;1.30;;;1.20;;
28547;SDS011;68292;49.600;8.746;2023-05-10T16:53:04;2.17;;;1.20;;
28547;SDS011;68292;49.600;8.746;2023-05-10T16:55:51;3.17;;;1.35;;
28547;SDS011;68292;49.600;8.746;2023-05-10T16:58:39;1.58;;;1.10;;
28547;SDS011;68292;49.600;8.746;2023-05-10T17:01:25;1.10;;;1.00;;